首页
METAR-TAF:

METAR-TAF

机场 :

Newton Municipal Airport

牛顿, 艾奥瓦州, 美国

纬度: 41-41N, 经度: 093-01W, 海拔: 290米

当前天气观测

该预报发布于20分钟前的18:35 UTC
风速15节,风向北转东北
温度 25°C
湿度 54%
气压 1022 hPa
能見度: 16.1公里
少量云层高于4200英尺
少量云层高于4900英尺
少量云层高于6000英尺

METAR: KTNU 221835Z AUTO 02015KT 10SM FEW042 FEW049 FEW060 25/15 A3017 RMK AO2 PWINO

时间: 13:55 (18:55 UTC)


TAF: 丢失

超过4000个机场的气象观测和天气预报(METAR&TAF报告)。

可查询的气象台以黄色和红色小点在地图上表示。

将鼠标移到小点上方,可查看气象台名称。

然后点击查看天气观测和预报。

如需切换地图:点击带黑十字的绿色按钮放大地图;点击带横线的绿色按钮缩小地图;或者点击绿色箭头查看邻近地区的地图。


METAR-TAF: